Dades meteomassalio
Diari Summary for Gener 7, 2017 Units:  English    Metric   Both
« Previous Day
Next Day »
Diari Semanal Mensual Anual Personalitzat
  Maxima: Minima: Mijana:
Temperatura: TemperatureC °F -3.7 °F 1.2 °F
Rosada: DewpointC °F -5.9 °F -4.1 °F
Humitat: Humidity % 33 % 70 %
Velocitat del vent: WindSpeedKMH mph 0.0 mph 0 mph
Racha vent: WindSpeedGustKMH mph - -
Vent:- - North
Pressio: PressurehPa in 1031.0 in -
Pluja: 0.0 in    
Historical Graphs
 
 
Tabular Data for Gener 7, 2017
Time Temperature Dew Point Pressure Wind Wind Speed Wind Gust Humidity Rainfall Rate (Hourly) solar Conditions
TemperatureC °F DewpointC °F PressurehPa in Calm     Humidity % HourlyPrecipMM in SolarRadiationWatts/m^2 W/m2 Conditions
00:04 -2.5 °F -4.5 °F 1032.7 in Calm     86 % 0.0 in 0.0 W/m2 CLR
00:09 -2.6 °F -4.6 °F 1032.7 in Calm     86 % 0.0 in 0.0 W/m2 CLR
00:14 -2.7 °F -4.7 °F 1032.7 in Calm     86 % 0.0 in 0.0 W/m2 CLR
00:20 -2.7 °F -4.6 °F 1032.4 in Calm     87 % 0.0 in 0.0 W/m2 CLR
00:25 -2.7 °F -4.6 °F 1032.4 in Calm     87 % 0.0 in 0.0 W/m2 CLR
00:30 -2.4 °F -4.3 °F 1032.4 in Calm     87 % 0.0 in 0.0 W/m2 CLR
00:35 -2.4 °F -4.4 °F 1032.4 in Calm     86 % 0.0 in 0.0 W/m2 CLR
00:40 -2.4 °F -4.4 °F 1032.4 in Calm     86 % 0.0 in 0.0 W/m2 CLR
00:45 -2.4 °F -4.4 °F 1032.4 in Calm     86 % 0.0 in 0.0 W/m2 CLR
00:50 -2.4 °F -4.4 °F 1032.4 in Calm     86 % 0.0 in 0.0 W/m2 CLR
00:55 -2.4 °F -4.4 °F 1032.4 in Calm     86 % 0.0 in 0.0 W/m2 CLR
01:00 -2.3 °F -4.3 °F 1032.4 in Calm     86 % 0.0 in 0.0 W/m2 CLR
01:05 -2.4 °F -4.6 °F 1032.4 in Calm     85 % 0.0 in 0.0 W/m2 CLR
01:10 -2.4 °F -4.6 °F 1032.4 in Calm     85 % 0.0 in 0.0 W/m2 CLR
01:15 -2.5 °F -4.5 °F 1032.4 in Calm     86 % 0.0 in 0.0 W/m2 CLR
01:20 -2.5 °F -4.5 °F 1032.4 in Calm     86 % 0.0 in 0.0 W/m2 CLR
01:25 -2.6 °F -4.6 °F 1032.1 in Calm     86 % 0.0 in 0.0 W/m2 CLR
01:30 -2.6 °F -4.6 °F 1032.4 in Calm     86 % 0.0 in 0.0 W/m2 CLR
01:35 -2.6 °F -4.6 °F 1032.1 in Calm     86 % 0.0 in 0.0 W/m2 CLR
01:40 -2.7 °F -4.7 °F 1032.4 in Calm     86 % 0.0 in 0.0 W/m2 CLR
01:45 -2.8 °F -4.8 °F 1032.1 in Calm     86 % 0.0 in 0.0 W/m2 CLR
01:50 -2.7 °F -4.6 °F 1032.1 in Calm     87 % 0.0 in 0.0 W/m2 CLR
01:55 -2.6 °F -4.6 °F 1032.1 in Calm     86 % 0.0 in 0.0 W/m2 CLR
02:00 -2.5 °F -4.5 °F 1032.1 in Calm     86 % 0.0 in 0.0 W/m2 CLR
02:05 -2.3 °F -4.3 °F 1032.1 in Calm     86 % 0.0 in 0.0 W/m2 CLR
02:10 -2.2 °F -4.4 °F 1032.1 in Calm     85 % 0.0 in 0.0 W/m2 CLR
02:15 -2.3 °F -4.5 °F 1032.1 in Calm     85 % 0.0 in 0.0 W/m2 CLR
02:20 -2.4 °F -4.6 °F 1032.1 in Calm     85 % 0.0 in 0.0 W/m2 CLR
02:25 -2.6 °F -4.7 °F 1032.1 in Calm     85 % 0.0 in 0.0 W/m2 CLR
02:30 -2.5 °F -4.5 °F 1032.1 in Calm     86 % 0.0 in 0.0 W/m2 CLR
02:35 -2.6 °F -4.7 °F 1032.4 in Calm     85 % 0.0 in 0.0 W/m2 CLR
02:40 -2.7 °F -4.9 °F 1032.4 in Calm     85 % 0.0 in 0.0 W/m2 CLR
02:45 -2.7 °F -4.7 °F 1032.4 in Calm     86 % 0.0 in 0.0 W/m2 CLR
02:50 -2.7 °F -4.7 °F 1032.4 in Calm     86 % 0.0 in 0.0 W/m2 CLR
02:55 -2.6 °F -4.6 °F 1032.4 in Calm     86 % 0.0 in 0.0 W/m2 CLR
03:00 -2.5 °F -4.5 °F 1032.4 in Calm     86 % 0.0 in 0.0 W/m2 CLR
03:05 -2.5 °F -4.5 °F 1032.4 in Calm     86 % 0.0 in 0.0 W/m2 CLR
03:10 -2.6 °F -4.6 °F 1032.4 in Calm     86 % 0.0 in 0.0 W/m2 CLR
03:15 -2.6 °F -4.6 °F 1032.4 in Calm     86 % 0.0 in 0.0 W/m2 CLR
03:20 -2.6 °F -4.6 °F 1032.4 in Calm     86 % 0.0 in 0.0 W/m2 CLR
03:25 -2.4 °F -4.3 °F 1032.4 in Calm     87 % 0.0 in 0.0 W/m2 CLR
03:30 -2.2 °F -4.2 °F 1032.4 in Calm     86 % 0.0 in 0.0 W/m2 CLR
03:35 -2.2 °F -4.3 °F 1032.4 in Calm     85 % 0.0 in 0.0 W/m2 CLR
03:40 -2.2 °F -4.4 °F 1032.4 in Calm     85 % 0.0 in 0.0 W/m2 CLR
03:45 -2.3 °F -4.5 °F 1032.4 in Calm     85 % 0.0 in 0.0 W/m2 CLR
03:50 -2.4 °F -4.4 °F 1032.4 in Calm     86 % 0.0 in 0.0 W/m2 CLR
03:55 -2.4 °F -4.6 °F 1032.4 in Calm     85 % 0.0 in 0.0 W/m2 CLR
04:00 -2.6 °F -4.8 °F 1032.4 in Calm     85 % 0.0 in 0.0 W/m2 CLR
04:05 -2.7 °F -4.7 °F 1032.4 in Calm     86 % 0.0 in 0.0 W/m2 CLR
04:10 -2.7 °F -4.7 °F 1032.4 in Calm     86 % 0.0 in 0.0 W/m2 CLR
04:15 -2.8 °F -4.8 °F 1032.4 in Calm     86 % 0.0 in 0.0 W/m2 CLR
04:20 -2.7 °F -4.6 °F 1032.4 in Calm     87 % 0.0 in 0.0 W/m2 CLR
04:25 -2.8 °F -4.7 °F 1032.4 in Calm     87 % 0.0 in 0.0 W/m2 CLR
04:30 -2.9 °F -4.8 °F 1032.4 in Calm     87 % 0.0 in 0.0 W/m2 CLR
04:35 -2.8 °F -4.7 °F 1032.4 in Calm     87 % 0.0 in 0.0 W/m2 CLR
04:40 -2.7 °F -4.6 °F 1032.4 in Calm     87 % 0.0 in 0.0 W/m2 CLR
04:45 -2.6 °F -4.5 °F 1032.4 in Calm     87 % 0.0 in 0.0 W/m2 CLR
04:50 -2.6 °F -4.6 °F 1032.4 in Calm     86 % 0.0 in 0.0 W/m2 CLR
04:55 -2.6 °F -4.6 °F 1032.4 in Calm     86 % 0.0 in 0.0 W/m2 CLR
05:00 -2.6 °F -4.6 °F 1032.4 in Calm     86 % 0.0 in 0.0 W/m2 CLR
05:05 -2.7 °F -4.7 °F 1032.4 in Calm     86 % 0.0 in 0.0 W/m2 CLR
05:10 -2.7 °F -4.7 °F 1032.4 in Calm     86 % 0.0 in 0.0 W/m2 CLR
05:15 -2.7 °F -4.7 °F 1032.4 in Calm     86 % 0.0 in 0.0 W/m2 CLR
05:20 -2.7 °F -4.6 °F 1032.4 in Calm     87 % 0.0 in 0.0 W/m2 CLR
05:25 -2.7 °F -4.6 °F 1032.4 in Calm     87 % 0.0 in 0.0 W/m2 CLR
05:30 -2.6 °F -4.4 °F 1032.4 in Calm     87 % 0.0 in 0.0 W/m2 CLR
05:36 -2.6 °F -4.6 °F 1032.4 in Calm     86 % 0.0 in 0.0 W/m2 CLR
05:41 -2.6 °F -4.6 °F 1032.4 in Calm     86 % 0.0 in 0.0 W/m2 CLR
05:46 -2.7 °F -4.7 °F 1032.4 in Calm     86 % 0.0 in 0.0 W/m2 CLR
05:51 -2.8 °F -4.8 °F 1032.4 in Calm     86 % 0.0 in 0.0 W/m2 CLR
05:56 -2.7 °F -4.7 °F 1032.4 in Calm     86 % 0.0 in 0.0 W/m2 CLR
06:01 -2.7 °F -4.7 °F 1032.4 in Calm     86 % 0.0 in 0.0 W/m2 CLR
06:06 -2.8 °F -4.8 °F 1032.4 in Calm     86 % 0.0 in 0.0 W/m2 CLR
06:11 -2.8 °F -4.8 °F 1032.4 in Calm     86 % 0.0 in 0.0 W/m2 CLR
06:16 -2.9 °F -4.9 °F 1032.4 in Calm     86 % 0.0 in 0.0 W/m2 CLR
06:21 -3.1 °F -5.1 °F 1032.4 in Calm     86 % 0.0 in 0.0 W/m2 CLR
06:26 -3.1 °F -4.9 °F 1032.4 in Calm     87 % 0.0 in 0.0 W/m2 CLR
06:31 -3.3 °F -5.3 °F 1032.4 in Calm     86 % 0.0 in 0.0 W/m2 CLR
06:36 -3.4 °F -5.2 °F 1032.4 in Calm     87 % 0.0 in 0.0 W/m2 CLR
06:41 -3.4 °F -5.3 °F 1032.4 in Calm     87 % 0.0 in 0.0 W/m2 CLR
06:46 -3.5 °F -5.2 °F 1032.4 in Calm     88 % 0.0 in 0.0 W/m2 CLR
06:51 -3.5 °F -5.2 °F 1032.4 in Calm     88 % 0.0 in 0.0 W/m2 CLR
06:56 -3.5 °F -5.2 °F 1032.4 in Calm     88 % 0.0 in 0.0 W/m2 CLR
07:01 -3.4 °F -5.2 °F 1032.4 in Calm     88 % 0.0 in 0.0 W/m2 CLR
07:06 -3.4 °F -5.1 °F 1032.7 in Calm     88 % 0.0 in 0.0 W/m2 CLR
07:11 -3.3 °F -5.2 °F 1032.7 in Calm     87 % 0.0 in 0.0 W/m2 CLR
07:16 -3.3 °F -5.2 °F 1032.7 in Calm     87 % 0.0 in 0.0 W/m2 CLR
07:21 -3.4 °F -5.3 °F 1032.7 in Calm     87 % 0.0 in 0.0 W/m2 CLR
07:26 -3.5 °F -5.3 °F 1032.7 in Calm     87 % 0.0 in 0.0 W/m2 CLR
07:31 -3.5 °F -5.3 °F 1032.7 in Calm     87 % 0.0 in 0.0 W/m2 CLR
07:36 -3.6 °F -5.4 °F 1032.7 in Calm     87 % 0.0 in 0.0 W/m2 CLR
07:41 -3.7 °F -5.5 °F 1032.7 in Calm     87 % 0.0 in 0.0 W/m2 CLR
07:46 -3.7 °F -5.6 °F 1032.7 in Calm     87 % 0.0 in 0.0 W/m2 CLR
07:51 -3.7 °F -5.6 °F 1033.1 in Calm     87 % 0.0 in 0.0 W/m2 CLR
07:56 -3.7 °F -5.5 °F 1033.1 in Calm     87 % 0.0 in 0.0 W/m2 CLR
08:01 -3.7 °F -5.5 °F 1033.1 in Calm     87 % 0.0 in 0.0 W/m2 CLR
08:06 -3.6 °F -5.3 °F 1033.1 in Calm     88 % 0.0 in 0.0 W/m2 CLR
08:11 -3.4 °F -5.2 °F 1033.1 in Calm     87 % 0.0 in 0.0 W/m2 CLR
08:16 -3.2 °F -5.2 °F 1033.1 in Calm     86 % 0.0 in 0.0 W/m2 CLR
08:21 -3.0 °F -5.0 °F 1033.1 in Calm     86 % 0.0 in 0.0 W/m2 CLR
08:26 -2.9 °F -5.1 °F 1033.1 in Calm     85 % 0.0 in 0.0 W/m2 OVC
08:31 -3.2 °F -5.5 °F 1033.4 in Calm     84 % 0.0 in 5.0 W/m2 BKN
08:36 -3.4 °F -5.6 °F 1033.1 in Calm     85 % 0.0 in 9.0 W/m2 BKN
08:41 -3.4 °F -5.6 °F 1033.1 in Calm     85 % 0.0 in 12.0 W/m2 BKN
08:46 -3.3 °F -5.3 °F 1033.4 in Calm     86 % 0.0 in 14.0 W/m2 BKN
08:51 -3.0 °F -5.0 °F 1033.4 in Calm     86 % 0.0 in 18.0 W/m2 BKN
08:56 -2.8 °F -4.9 °F 1033.4 in Calm     85 % 0.0 in 26.0 W/m2 BKN
09:01 -2.7 °F -5.0 °F 1033.4 in Calm     84 % 0.0 in 37.0 W/m2 BKN
09:06 -2.4 °F -4.8 °F 1033.4 in Calm     84 % 0.0 in 44.0 W/m2 BKN
09:11 -2.1 °F -4.4 °F 1033.4 in Calm     84 % 0.0 in 62.0 W/m2 BKN
09:16 -1.6 °F -4.3 °F 1033.4 in Calm     82 % 0.0 in 65.0 W/m2 BKN
09:21 -1.4 °F -4.1 °F 1033.4 in Calm     82 % 0.0 in 63.0 W/m2 BKN
09:26 -1.0 °F -3.8 °F 1033.4 in Calm     81 % 0.0 in 83.0 W/m2 BKN
09:31 -0.7 °F -3.7 °F 1033.4 in Calm     80 % 0.0 in 100.0 W/m2 BKN
09:36 -0.6 °F -3.9 °F 1033.4 in Calm     78 % 0.0 in 95.0 W/m2 BKN
09:41 -0.5 °F -4.1 °F 1033.4 in Calm     77 % 0.0 in 151.0 W/m2 BKN
09:46 -0.4 °F -4.1 °F 1033.7 in Calm     76 % 0.0 in 163.0 W/m2 SCT
09:51 -0.2 °F -3.9 °F 1033.7 in Calm     76 % 0.0 in 132.0 W/m2 SCT
09:56 0.2 °F -3.7 °F 1033.7 in Calm     75 % 0.0 in 171.0 W/m2 SCT
10:01 0.6 °F -3.7 °F 1033.7 in Calm     73 % 0.0 in 185.0 W/m2 SCT
10:06 0.8 °F -3.9 °F 1033.7 in Calm     71 % 0.0 in 109.0 W/m2 SCT
10:11 1.2 °F -3.3 °F 1033.7 in Calm     72 % 0.0 in 216.0 W/m2 SCT
10:16 1.6 °F -3.4 °F 1033.7 in Calm     69 % 0.0 in 121.0 W/m2 BKN
10:21 1.9 °F -3.6 °F 1033.7 in Calm     67 % 0.0 in 239.0 W/m2 SCT
10:26 2.1 °F -3.4 °F 1033.7 in Calm     67 % 0.0 in 225.0 W/m2 SCT
10:31 2.5 °F -3.0 °F 1033.7 in Calm     67 % 0.0 in 264.0 W/m2 SCT
10:36 2.8 °F -3.1 °F 1033.7 in Calm     65 % 0.0 in 274.0 W/m2 SCT
10:41 3.1 °F -3.3 °F 1033.7 in Calm     63 % 0.0 in 285.0 W/m2 SCT
10:46 3.3 °F -3.1 °F 1033.7 in Calm     63 % 0.0 in 294.0 W/m2 FEW
10:51 3.4 °F -2.9 °F 1033.7 in Calm     63 % 0.0 in 306.0 W/m2 FEW
10:56 3.6 °F -3.2 °F 1033.7 in Calm     61 % 0.0 in 315.0 W/m2 FEW
11:01 3.7 °F -2.7 °F 1033.7 in Calm     63 % 0.0 in 323.0 W/m2 FEW
11:06 3.8 °F -2.8 °F 1033.7 in Calm     62 % 0.0 in 332.0 W/m2 FEW
11:11 4.2 °F -2.3 °F 1033.7 in Calm     63 % 0.0 in 343.0 W/m2 FEW
11:16 4.4 °F -2.4 °F 1033.7 in Calm     61 % 0.0 in 350.0 W/m2 FEW
11:21 4.7 °F -2.2 °F 1033.7 in Calm     61 % 0.0 in 359.0 W/m2 FEW
11:26 4.9 °F -2.4 °F 1033.7 in Calm     59 % 0.0 in 366.0 W/m2 FEW
11:31 4.9 °F -2.4 °F 1033.7 in Calm     59 % 0.0 in 373.0 W/m2 FEW
11:36 4.9 °F -2.4 °F 1033.7 in Calm     59 % 0.0 in 381.0 W/m2 FEW
11:41 5.1 °F -2.3 °F 1033.4 in Calm     59 % 0.0 in 387.0 W/m2 FEW
11:46 5.4 °F -2.0 °F 1033.4 in Calm     59 % 0.0 in 394.0 W/m2 FEW
11:52 5.6 °F -2.6 °F 1033.4 in Calm     56 % 0.0 in 401.0 W/m2 FEW
11:57 5.7 °F -2.4 °F 1033.4 in Calm     56 % 0.0 in 406.0 W/m2 CLR
12:02 5.9 °F -2.2 °F 1033.4 in Calm     56 % 0.0 in 411.0 W/m2 CLR
12:07 6.2 °F -2.7 °F 1033.4 in Calm     53 % 0.0 in 415.0 W/m2 CLR
12:12 6.4 °F -2.3 °F 1033.1 in Calm     54 % 0.0 in 422.0 W/m2 CLR
12:17 6.9 °F -2.0 °F 1033.1 in Calm     53 % 0.0 in 429.0 W/m2 CLR
12:22 7.3 °F -2.2 °F 1033.1 in Calm     51 % 0.0 in 432.0 W/m2 CLR
12:27 7.7 °F -1.8 °F 1032.7 in Calm     51 % 0.0 in 436.0 W/m2 CLR
12:32 7.9 °F -1.9 °F 1032.7 in Calm     50 % 0.0 in 436.0 W/m2 CLR
12:37 8.2 °F -1.7 °F 1032.7 in Calm     50 % 0.0 in 441.0 W/m2 CLR
12:42 8.3 °F -2.1 °F 1032.7 in Calm     48 % 0.0 in 443.0 W/m2 CLR
12:47 8.4 °F -2.0 °F 1032.7 in Calm     48 % 0.0 in 445.0 W/m2 CLR
12:52 8.6 °F -2.1 °F 1032.7 in Calm     47 % 0.0 in 448.0 W/m2 CLR
12:57 8.6 °F -2.1 °F 1032.7 in Calm     47 % 0.0 in 448.0 W/m2 CLR
13:02 8.7 °F -2.3 °F 1032.4 in Calm     46 % 0.0 in 452.0 W/m2 CLR
13:07 8.8 °F -2.5 °F 1032.4 in Calm     45 % 0.0 in 452.0 W/m2 CLR
13:12 8.8 °F -1.6 °F 1032.1 in Calm     48 % 0.0 in 450.0 W/m2 CLR
13:17 8.8 °F -2.8 °F 1032.1 in Calm     44 % 0.0 in 452.0 W/m2 CLR
13:22 8.9 °F -3.3 °F 1032.1 in Calm     42 % 0.0 in 450.0 W/m2 CLR
13:27 9.0 °F -4.2 °F 1031.7 in Calm     39 % 0.0 in 448.0 W/m2 CLR
13:32 9.1 °F -4.8 °F 1031.7 in Calm     37 % 0.0 in 448.0 W/m2 CLR
13:37 9.2 °F -4.8 °F 1031.7 in Calm     37 % 0.0 in 446.0 W/m2 CLR
13:42 9.2 °F -5.1 °F 1031.7 in Calm     36 % 0.0 in 436.0 W/m2 CLR
13:47 9.4 °F -5.3 °F 1031.7 in Calm     35 % 0.0 in 436.0 W/m2 CLR
13:52 9.4 °F -5.3 °F 1031.7 in Calm     35 % 0.0 in 422.0 W/m2 CLR
13:57 9.4 °F -5.3 °F 1031.4 in Calm     35 % 0.0 in 427.0 W/m2 CLR
14:02 9.6 °F -5.9 °F 1031.4 in Calm     33 % 0.0 in 427.0 W/m2 CLR
14:07 9.7 °F -5.1 °F 1031.4 in Calm     35 % 0.0 in 425.0 W/m2 CLR
14:12 9.9 °F -5.3 °F 1031.0 in Calm     34 % 0.0 in 418.0 W/m2 CLR
14:17 10.1 °F -4.7 °F 1031.0 in Calm     35 % 0.0 in 410.0 W/m2 CLR
14:22 9.9 °F -4.8 °F 1031.0 in Calm     35 % 0.0 in 403.0 W/m2 CLR
14:27 9.9 °F -4.2 °F 1031.0 in Calm     37 % 0.0 in 406.0 W/m2 CLR
14:32 10.0 °F -5.2 °F 1031.0 in Calm     34 % 0.0 in 401.0 W/m2 CLR
14:37 10.3 °F -4.9 °F 1031.0 in Calm     34 % 0.0 in 388.0 W/m2 CLR
14:42 10.3 °F -4.2 °F 1031.0 in Calm     36 % 0.0 in 385.0 W/m2 CLR
14:47 10.2 °F -4.2 °F 1031.0 in Calm     36 % 0.0 in 373.0 W/m2 CLR
14:52 9.9 °F -2.7 °F 1031.0 in Calm     41 % 0.0 in 371.0 W/m2 CLR
14:57 9.5 °F -1.8 °F 1031.0 in Calm     45 % 0.0 in 364.0 W/m2 CLR
15:02 9.2 °F -2.1 °F 1031.0 in Calm     45 % 0.0 in 355.0 W/m2 CLR
15:07 9.2 °F -1.6 °F 1031.0 in Calm     47 % 0.0 in 346.0 W/m2 CLR
15:12 9.1 °F -1.6 °F 1031.0 in Calm     47 % 0.0 in 338.0 W/m2 CLR
15:17 9.1 °F -1.4 °F 1031.0 in Calm     48 % 0.0 in 327.0 W/m2 CLR
15:22 9.1 °F -1.3 °F 1031.0 in Calm     48 % 0.0 in 315.0 W/m2 CLR
15:27 9.3 °F -0.8 °F 1031.0 in Calm     49 % 0.0 in 306.0 W/m2 CLR
15:32 9.2 °F -1.2 °F 1031.0 in Calm     48 % 0.0 in 297.0 W/m2 CLR
15:37 8.9 °F -1.3 °F 1031.0 in Calm     49 % 0.0 in 287.0 W/m2 CLR
15:42 8.7 °F -1.4 °F 1031.0 in Calm     49 % 0.0 in 274.0 W/m2 CLR
15:47 8.4 °F -2.2 °F 1031.4 in Calm     47 % 0.0 in 260.0 W/m2 CLR
15:52 8.3 °F -2.4 °F 1031.4 in Calm     47 % 0.0 in 248.0 W/m2 CLR
15:57 8.2 °F -2.7 °F 1031.4 in Calm     46 % 0.0 in 236.0 W/m2 CLR
16:02 8.1 °F -2.8 °F 1031.4 in Calm     46 % 0.0 in 221.0 W/m2 CLR
16:07 8.1 °F -3.1 °F 1031.4 in Calm     45 % 0.0 in 204.0 W/m2 CLR
16:13 8.1 °F -3.2 °F 1031.4 in Calm     45 % 0.0 in 190.0 W/m2 CLR
16:18 8.1 °F -2.9 °F 1031.4 in Calm     46 % 0.0 in 176.0 W/m2 CLR
16:23 8.2 °F -2.5 °F 1031.4 in Calm     47 % 0.0 in 162.0 W/m2 CLR
16:28 8.3 °F -2.4 °F 1031.4 in Calm     47 % 0.0 in 146.0 W/m2 CLR
16:33 8.3 °F -2.9 °F 1031.4 in Calm     45 % 0.0 in 132.0 W/m2 CLR
16:38 8.6 °F -2.4 °F 1031.4 in Calm     46 % 0.0 in 118.0 W/m2 CLR
16:43 8.8 °F -2.5 °F 1031.4 in Calm     45 % 0.0 in 105.0 W/m2 CLR
16:48 8.7 °F -3.2 °F 1031.4 in Calm     43 % 0.0 in 90.0 W/m2 CLR
16:53 8.4 °F -3.2 °F 1031.4 in Calm     44 % 0.0 in 79.0 W/m2 CLR
16:58 8.2 °F -3.4 °F 1031.7 in Calm     44 % 0.0 in 62.0 W/m2 CLR
17:03 7.8 °F -4.3 °F 1031.7 in Calm     42 % 0.0 in 56.0 W/m2 OVC
17:08 7.4 °F -4.3 °F 1031.7 in Calm     43 % 0.0 in 40.0 W/m2 OVC
17:13 7.2 °F -4.6 °F 1031.7 in Calm     43 % 0.0 in 30.0 W/m2 OVC
17:18 7.1 °F -4.4 °F 1031.7 in Calm     44 % 0.0 in 23.0 W/m2 OVC
17:23 6.8 °F -4.3 °F 1031.7 in Calm     45 % 0.0 in 18.0 W/m2 OVC
17:28 6.6 °F -4.3 °F 1031.7 in Calm     46 % 0.0 in 14.0 W/m2 OVC
17:33 6.3 °F -4.2 °F 1032.1 in Calm     47 % 0.0 in 12.0 W/m2 OVC
17:38 5.9 °F -4.3 °F 1032.1 in Calm     48 % 0.0 in 12.0 W/m2 OVC
17:43 5.7 °F -4.2 °F 1032.1 in Calm     49 % 0.0 in 9.0 W/m2 OVC
17:48 5.4 °F -4.4 °F 1032.1 in Calm     49 % 0.0 in 5.0 W/m2 OVC
17:53 5.3 °F -4.6 °F 1032.1 in Calm     49 % 0.0 in 0.0 W/m2 CLR
17:58 5.2 °F -4.7 °F 1032.4 in Calm     49 % 0.0 in 0.0 W/m2 CLR
18:03 5.1 °F -4.5 °F 1032.4 in Calm     50 % 0.0 in 0.0 W/m2 CLR
18:08 4.8 °F -4.2 °F 1032.4 in Calm     52 % 0.0 in 0.0 W/m2 CLR
18:13 4.6 °F -4.4 °F 1032.4 in Calm     52 % 0.0 in 0.0 W/m2 CLR
18:18 4.3 °F -4.2 °F 1032.4 in Calm     54 % 0.0 in 0.0 W/m2 CLR
18:23 4.0 °F -4.5 °F 1032.4 in Calm     54 % 0.0 in 0.0 W/m2 CLR
18:28 3.8 °F -4.2 °F 1032.4 in Calm     56 % 0.0 in 0.0 W/m2 CLR
18:33 3.5 °F -4.0 °F 1032.4 in Calm     58 % 0.0 in 0.0 W/m2 CLR
18:38 3.3 °F -4.2 °F 1032.4 in Calm     58 % 0.0 in 0.0 W/m2 CLR
18:43 3.1 °F -3.9 °F 1032.7 in Calm     60 % 0.0 in 0.0 W/m2 CLR
18:48 2.8 °F -3.7 °F 1032.7 in Calm     62 % 0.0 in 0.0 W/m2 CLR
18:53 2.4 °F -3.7 °F 1032.7 in Calm     64 % 0.0 in 0.0 W/m2 CLR
18:58 2.2 °F -3.9 °F 1032.7 in Calm     64 % 0.0 in 0.0 W/m2 CLR
19:03 2.0 °F -3.7 °F 1032.7 in Calm     66 % 0.0 in 0.0 W/m2 CLR
19:08 1.8 °F -3.7 °F 1032.7 in Calm     67 % 0.0 in 0.0 W/m2 CLR
19:13 1.6 °F -3.9 °F 1033.1 in Calm     67 % 0.0 in 0.0 W/m2 CLR
19:18 1.3 °F -3.9 °F 1033.1 in Calm     68 % 0.0 in 0.0 W/m2 CLR
19:23 1.1 °F -4.0 °F 1033.1 in Calm     69 % 0.0 in 0.0 W/m2 CLR
19:28 0.8 °F -4.0 °F 1033.1 in Calm     70 % 0.0 in 0.0 W/m2 CLR
19:33 0.7 °F -3.9 °F 1033.1 in Calm     71 % 0.0 in 0.0 W/m2 CLR
19:38 0.5 °F -3.9 °F 1033.1 in Calm     72 % 0.0 in 0.0 W/m2 CLR
19:43 0.4 °F -3.9 °F 1033.4 in Calm     73 % 0.0 in 0.0 W/m2 CLR
19:48 0.2 °F -4.1 °F 1033.4 in Calm     73 % 0.0 in 0.0 W/m2 CLR
19:53 0.1 °F -4.0 °F 1033.4 in Calm     74 % 0.0 in 0.0 W/m2 CLR
19:58 0.0 °F -3.9 °F 1033.4 in Calm     75 % 0.0 in 0.0 W/m2 CLR
20:03 -0.1 °F -3.9 °F 1033.4 in Calm     75 % 0.0 in 0.0 W/m2 CLR
20:08 -0.2 °F -4.1 °F 1033.4 in Calm     75 % 0.0 in 0.0 W/m2 CLR
20:13 -0.4 °F -4.2 °F 1033.4 in Calm     76 % 0.0 in 0.0 W/m2 CLR
20:18 -0.6 °F -4.2 °F 1033.7 in Calm     77 % 0.0 in 0.0 W/m2 CLR
20:23 -0.7 °F -4.1 °F 1033.7 in Calm     78 % 0.0 in 0.0 W/m2 CLR
20:28 -0.8 °F -4.2 °F 1033.7 in Calm     78 % 0.0 in 0.0 W/m2 CLR
20:33 -0.9 °F -4.2 °F 1033.7 in Calm     78 % 0.0 in 0.0 W/m2 CLR
20:38 -0.9 °F -4.1 °F 1033.7 in Calm     79 % 0.0 in 0.0 W/m2 CLR
20:43 -1.1 °F -4.2 °F 1033.7 in Calm     79 % 0.0 in 0.0 W/m2 CLR
20:48 -1.1 °F -4.1 °F 1033.7 in Calm     80 % 0.0 in 0.0 W/m2 CLR
20:53 -1.1 °F -4.2 °F 1033.7 in Calm     79 % 0.0 in 0.0 W/m2 CLR
20:58 -1.1 °F -4.3 °F 1033.7 in Calm     79 % 0.0 in 0.0 W/m2 CLR
21:03 -1.2 °F -4.2 °F 1033.7 in Calm     80 % 0.0 in 0.0 W/m2 CLR
21:08 -1.3 °F -4.3 °F 1033.7 in Calm     80 % 0.0 in 0.0 W/m2 CLR
21:13 -1.4 °F -4.4 °F 1033.7 in Calm     80 % 0.0 in 0.0 W/m2 CLR
21:18 -1.4 °F -4.4 °F 1033.7 in Calm     80 % 0.0 in 0.0 W/m2 CLR
21:23 -1.4 °F -4.3 °F 1033.7 in Calm     81 % 0.0 in 0.0 W/m2 CLR
21:28 -1.5 °F -4.3 °F 1034.1 in Calm     81 % 0.0 in 0.0 W/m2 CLR
21:33 -1.6 °F -4.4 °F 1034.1 in Calm     81 % 0.0 in 0.0 W/m2 CLR
21:38 -1.6 °F -4.4 °F 1034.1 in Calm     81 % 0.0 in 0.0 W/m2 CLR
21:44 -1.6 °F -4.4 °F 1033.7 in Calm     81 % 0.0 in 0.0 W/m2 CLR
21:49 -1.6 °F -4.4 °F 1033.7 in Calm     81 % 0.0 in 0.0 W/m2 CLR
21:54 -1.6 °F -4.4 °F 1033.7 in Calm     81 % 0.0 in 0.0 W/m2 CLR
21:59 -1.6 °F -4.4 °F 1033.7 in Calm     81 % 0.0 in 0.0 W/m2 CLR
22:04 -1.5 °F -4.3 °F 1033.7 in Calm     81 % 0.0 in 0.0 W/m2 CLR
22:09 -1.5 °F -4.3 °F 1033.7 in Calm     81 % 0.0 in 0.0 W/m2 CLR
22:14 -1.4 °F -4.3 °F 1033.7 in Calm     81 % 0.0 in 0.0 W/m2 CLR
22:19 -1.6 °F -4.4 °F 1033.7 in Calm     81 % 0.0 in 0.0 W/m2 CLR
22:24 -1.5 °F -4.5 °F 1033.7 in Calm     80 % 0.0 in 0.0 W/m2 CLR
22:29 -1.5 °F -4.5 °F 1033.7 in Calm     80 % 0.0 in 0.0 W/m2 CLR
22:34 -1.4 °F -4.6 °F 1033.7 in Calm     79 % 0.0 in 0.0 W/m2 CLR
22:39 -1.4 °F -4.6 °F 1033.7 in Calm     79 % 0.0 in 0.0 W/m2 CLR
22:44 -1.4 °F -4.6 °F 1033.7 in Calm     79 % 0.0 in 0.0 W/m2 CLR
22:49 -1.4 °F -4.6 °F 1033.7 in Calm     79 % 0.0 in 0.0 W/m2 CLR
22:54 -1.4 °F -4.6 °F 1034.1 in Calm     79 % 0.0 in 0.0 W/m2 CLR
22:59 -1.4 °F -4.6 °F 1033.7 in Calm     79 % 0.0 in 0.0 W/m2 CLR
23:04 -1.4 °F -4.6 °F 1033.7 in Calm     79 % 0.0 in 0.0 W/m2 CLR
23:09 -1.6 °F -4.6 °F 1033.7 in Calm     80 % 0.0 in 0.0 W/m2 CLR
23:14 -1.7 °F -4.7 °F 1033.7 in Calm     80 % 0.0 in 0.0 W/m2 CLR
23:19 -1.8 °F -4.6 °F 1033.7 in Calm     81 % 0.0 in 0.0 W/m2 CLR
23:24 -1.8 °F -4.7 °F 1033.7 in Calm     81 % 0.0 in 0.0 W/m2 CLR
23:29 -1.9 °F -4.8 °F 1033.7 in Calm     81 % 0.0 in 0.0 W/m2 CLR
23:34 -2.0 °F -4.7 °F 1033.7 in Calm     82 % 0.0 in 0.0 W/m2 CLR
23:39 -2.1 °F -4.7 °F 1033.7 in Calm     82 % 0.0 in 0.0 W/m2 CLR
23:44 -2.1 °F -4.7 °F 1034.1 in Calm     82 % 0.0 in 0.0 W/m2 CLR
23:49 -2.0 °F -4.8 °F 1034.1 in Calm     81 % 0.0 in 0.0 W/m2 CLR
23:54 -2.1 °F -4.9 °F 1034.1 in Calm     81 % 0.0 in 0.0 W/m2 CLR
23:59 -2.1 °F -4.9 °F 1034.1 in Calm     81 % 0.0 in 0.0 W/m2 CLR
Lo Temps de Massalio
Compliments of Weather Underground - 1.25 mb